sensor_id;sensor_type;location;lat;lon;timestamp;pressure;altitude;pressure_sealevel;temperature;humidity
6449;BME280;3257;52.298;13.690;2022-10-17T00:00:39;77475.03;;;-144.77;95.18
6449;BME280;3257;52.298;13.690;2022-10-17T00:03:06;77477.03;;;-144.77;95.21
6449;BME280;3257;52.298;13.690;2022-10-17T00:05:33;77481.00;;;-144.77;95.31
6449;BME280;3257;52.298;13.690;2022-10-17T00:07:59;77467.09;;;-144.77;95.50
6449;BME280;3257;52.298;13.690;2022-10-17T00:10:26;77481.00;;;-144.77;95.50
6449;BME280;3257;52.298;13.690;2022-10-17T00:12:52;77484.97;;;-144.77;95.55
6449;BME280;3257;52.298;13.690;2022-10-17T00:15:21;77479.03;;;-144.77;95.51
6449;BME280;3257;52.298;13.690;2022-10-17T00:17:48;77486.97;;;-144.77;95.39
6449;BME280;3257;52.298;13.690;2022-10-17T00:20:15;77469.09;;;-144.77;94.97
6449;BME280;3257;52.298;13.690;2022-10-17T00:22:43;77451.19;;;-144.77;94.97
6449;BME280;3257;52.298;13.690;2022-10-17T00:25:10;77433.31;;;-144.77;93.51
6449;BME280;3257;52.298;13.690;2022-10-17T00:27:38;77457.16;;;-144.77;94.22
6449;BME280;3257;52.298;13.690;2022-10-17T00:30:08;77423.38;;;-144.77;92.94
6449;BME280;3257;52.298;13.690;2022-10-17T00:32:36;77415.41;;;-144.77;92.46
6449;BME280;3257;52.298;13.690;2022-10-17T00:35:03;77425.34;;;-144.77;93.16
6449;BME280;3257;52.298;13.690;2022-10-17T00:37:30;77429.31;;;-144.77;92.80
6449;BME280;3257;52.298;13.690;2022-10-17T00:39:57;77437.28;;;-144.77;93.40
6449;BME280;3257;52.298;13.690;2022-10-17T00:42:25;77465.09;;;-144.77;93.54
6449;BME280;3257;52.298;13.690;2022-10-17T00:47:32;77479.03;;;-144.77;93.54
6449;BME280;3257;52.298;13.690;2022-10-17T00:50:02;77498.91;;;-144.77;93.97
6449;BME280;3257;52.298;13.690;2022-10-17T00:52:29;77467.09;;;-144.77;94.13
6449;BME280;3257;52.298;13.690;2022-10-17T00:55:02;77479.03;;;-144.77;94.46
6449;BME280;3257;52.298;13.690;2022-10-17T00:57:30;77490.94;;;-144.77;94.12
6449;BME280;3257;52.298;13.690;2022-10-17T00:59:58;77510.81;;;-144.77;94.38
6449;BME280;3257;52.298;13.690;2022-10-17T01:02:27;77528.72;;;-144.77;94.89
6449;BME280;3257;52.298;13.690;2022-10-17T01:04:55;77544.63;;;-144.77;95.47
6449;BME280;3257;52.298;13.690;2022-10-17T01:07:26;77548.59;;;-144.77;95.88
6449;BME280;3257;52.298;13.690;2022-10-17T01:09:55;77540.63;;;-144.77;95.94
6449;BME280;3257;52.298;13.690;2022-10-17T01:12:36;77536.66;;;-144.77;95.86
6449;BME280;3257;52.298;13.690;2022-10-17T01:15:21;77540.63;;;-144.77;95.57
6449;BME280;3257;52.298;13.690;2022-10-17T01:18:22;77542.63;;;-144.77;95.76
6449;BME280;3257;52.298;13.690;2022-10-17T01:32:37;77540.63;;;-144.77;96.52
6449;BME280;3257;52.298;13.690;2022-10-17T01:35:17;77542.63;;;-144.77;96.84
6449;BME280;3257;52.298;13.690;2022-10-17T01:38:10;77534.69;;;-144.77;96.27
6449;BME280;3257;52.298;13.690;2022-10-17T01:40:48;77544.63;;;-144.77;96.44
6449;BME280;3257;52.298;13.690;2022-10-17T01:43:22;77556.53;;;-144.77;96.61
6449;BME280;3257;52.298;13.690;2022-10-17T01:48:36;77560.50;;;-144.77;96.69
6449;BME280;3257;52.298;13.690;2022-10-17T01:51:15;77568.47;;;-144.77;96.77
6449;BME280;3257;52.298;13.690;2022-10-17T01:56:38;77576.41;;;-144.77;96.75
6449;BME280;3257;52.298;13.690;2022-10-17T01:59:11;77562.50;;;-144.77;96.83
6449;BME280;3257;52.298;13.690;2022-10-17T02:01:41;77538.66;;;-144.77;95.69
6449;BME280;3257;52.298;13.690;2022-10-17T02:04:10;77554.56;;;-144.77;95.82
6449;BME280;3257;52.298;13.690;2022-10-17T02:06:37;77574.44;;;-144.77;96.02
6449;BME280;3257;52.298;13.690;2022-10-17T02:09:24;77584.38;;;-144.77;96.64
6449;BME280;3257;52.298;13.690;2022-10-17T02:14:50;77590.34;;;-144.77;97.14
6449;BME280;3257;52.298;13.690;2022-10-17T02:20:30;77582.38;;;-144.77;97.37
6449;BME280;3257;52.298;13.690;2022-10-17T02:23:22;77582.38;;;-144.77;97.23
6449;BME280;3257;52.298;13.690;2022-10-17T02:31:01;77584.38;;;-144.77;97.82
6449;BME280;3257;52.298;13.690;2022-10-17T02:33:40;77584.38;;;-144.77;97.90
6449;BME280;3257;52.298;13.690;2022-10-17T02:36:14;77566.47;;;-144.77;97.95
6449;BME280;3257;52.298;13.690;2022-10-17T02:38:43;77576.41;;;-144.77;97.57
6449;BME280;3257;52.298;13.690;2022-10-17T02:41:14;77576.41;;;-144.77;97.77
6449;BME280;3257;52.298;13.690;2022-10-17T02:43:42;77570.44;;;-144.77;97.75
6449;BME280;3257;52.298;13.690;2022-10-17T02:46:13;77572.44;;;-144.77;97.62
6449;BME280;3257;52.298;13.690;2022-10-17T02:48:53;77572.44;;;-144.77;97.41
6449;BME280;3257;52.298;13.690;2022-10-17T02:51:29;77580.41;;;-144.77;97.32
6449;BME280;3257;52.298;13.690;2022-10-17T02:54:19;77588.34;;;-144.77;97.17
6449;BME280;3257;52.298;13.690;2022-10-17T02:57:09;77592.31;;;-144.77;97.14
6449;BME280;3257;52.298;13.690;2022-10-17T02:59:38;77594.31;;;-144.77;97.46
6449;BME280;3257;52.298;13.690;2022-10-17T03:02:07;77596.28;;;-144.77;97.66
6449;BME280;3257;52.298;13.690;2022-10-17T03:04:33;77574.44;;;-144.77;97.87
6449;BME280;3257;52.298;13.690;2022-10-17T03:07:00;77586.34;;;-144.77;97.64
6449;BME280;3257;52.298;13.690;2022-10-17T03:09:26;77586.34;;;-144.77;97.72
6449;BME280;3257;52.298;13.690;2022-10-17T03:11:53;77588.34;;;-144.77;97.79
6449;BME280;3257;52.298;13.690;2022-10-17T03:14:20;77582.38;;;-144.77;97.93
6449;BME280;3257;52.298;13.690;2022-10-17T03:16:46;77574.44;;;-144.77;97.92
6449;BME280;3257;52.298;13.690;2022-10-17T03:19:13;77560.50;;;-144.77;98.36
6449;BME280;3257;52.298;13.690;2022-10-17T03:21:39;77528.72;;;-144.77;98.39
6449;BME280;3257;52.298;13.690;2022-10-17T03:24:06;77532.69;;;-144.77;98.42
6449;BME280;3257;52.298;13.690;2022-10-17T03:26:32;77540.63;;;-144.77;98.83
6449;BME280;3257;52.298;13.690;2022-10-17T03:28:59;77548.59;;;-144.77;99.29
6449;BME280;3257;52.298;13.690;2022-10-17T03:31:26;77544.63;;;-144.77;99.39
6449;BME280;3257;52.298;13.690;2022-10-17T03:33:52;77550.56;;;-144.77;99.40
6449;BME280;3257;52.298;13.690;2022-10-17T03:36:19;77538.66;;;-144.77;99.34
6449;BME280;3257;52.298;13.690;2022-10-17T03:38:46;77522.75;;;-144.77;99.48
6449;BME280;3257;52.298;13.690;2022-10-17T03:41:13;77516.78;;;-144.77;99.37
6449;BME280;3257;52.298;13.690;2022-10-17T03:43:39;77504.84;;;-144.77;98.89
6449;BME280;3257;52.298;13.690;2022-10-17T03:46:06;77502.88;;;-144.77;98.91
6449;BME280;3257;52.298;13.690;2022-10-17T03:48:33;77496.91;;;-144.77;99.04
6449;BME280;3257;52.298;13.690;2022-10-17T03:51:01;77484.97;;;-144.77;98.49
6449;BME280;3257;52.298;13.690;2022-10-17T03:53:28;77494.91;;;-144.77;98.65
6449;BME280;3257;52.298;13.690;2022-10-17T03:55:56;77465.09;;;-144.77;98.30
6449;BME280;3257;52.298;13.690;2022-10-17T03:58:22;77457.16;;;-144.77;97.19
6449;BME280;3257;52.298;13.690;2022-10-17T04:00:49;77457.16;;;-144.77;97.21
6449;BME280;3257;52.298;13.690;2022-10-17T04:03:16;77469.09;;;-144.77;97.18
6449;BME280;3257;52.298;13.690;2022-10-17T04:05:42;77467.09;;;-144.77;97.02
6449;BME280;3257;52.298;13.690;2022-10-17T04:08:09;77457.16;;;-144.77;97.04
6449;BME280;3257;52.298;13.690;2022-10-17T04:10:35;77457.16;;;-144.77;96.97
6449;BME280;3257;52.298;13.690;2022-10-17T04:13:02;77465.09;;;-144.77;97.02
6449;BME280;3257;52.298;13.690;2022-10-17T04:15:28;77481.00;;;-144.77;96.78
6449;BME280;3257;52.298;13.690;2022-10-17T04:17:55;77494.91;;;-144.77;97.04
6449;BME280;3257;52.298;13.690;2022-10-17T04:20:21;77490.94;;;-144.77;97.42
6449;BME280;3257;52.298;13.690;2022-10-17T04:22:48;77494.91;;;-144.77;97.24
6449;BME280;3257;52.298;13.690;2022-10-17T04:25:25;77504.84;;;-144.77;97.19
6449;BME280;3257;52.298;13.690;2022-10-17T04:27:51;77520.75;;;-144.77;97.42
6449;BME280;3257;52.298;13.690;2022-10-17T04:30:17;77522.75;;;-144.77;97.59
6449;BME280;3257;52.298;13.690;2022-10-17T04:32:44;77536.66;;;-144.77;97.88
6449;BME280;3257;52.298;13.690;2022-10-17T04:35:11;77536.66;;;-144.77;97.83
6449;BME280;3257;52.298;13.690;2022-10-17T04:37:37;77556.53;;;-144.77;97.74
6449;BME280;3257;52.298;13.690;2022-10-17T04:40:04;77540.63;;;-144.77;98.41
6449;BME280;3257;52.298;13.690;2022-10-17T04:42:31;77542.63;;;-144.77;98.16
6449;BME280;3257;52.298;13.690;2022-10-17T04:44:57;77538.66;;;-144.77;97.88
6449;BME280;3257;52.298;13.690;2022-10-17T04:47:24;77538.66;;;-144.77;98.04
6449;BME280;3257;52.298;13.690;2022-10-17T04:49:50;77548.59;;;-144.77;98.09
6449;BME280;3257;52.298;13.690;2022-10-17T04:52:17;77544.63;;;-144.77;97.97
6449;BME280;3257;52.298;13.690;2022-10-17T04:54:43;77554.56;;;-144.77;97.97
6449;BME280;3257;52.298;13.690;2022-10-17T04:57:10;77560.50;;;-144.77;98.02
6449;BME280;3257;52.298;13.690;2022-10-17T04:59:36;77558.53;;;-144.77;98.24
6449;BME280;3257;52.298;13.690;2022-10-17T05:02:03;77556.53;;;-144.77;98.41
6449;BME280;3257;52.298;13.690;2022-10-17T05:04:30;77554.56;;;-144.77;98.62
6449;BME280;3257;52.298;13.690;2022-10-17T05:07:07;77558.53;;;-144.77;98.77
6449;BME280;3257;52.298;13.690;2022-10-17T05:09:34;77550.56;;;-144.77;98.80
6449;BME280;3257;52.298;13.690;2022-10-17T05:12:00;77556.53;;;-144.77;99.06
6449;BME280;3257;52.298;13.690;2022-10-17T05:14:34;77562.50;;;-144.77;98.82
6449;BME280;3257;52.298;13.690;2022-10-17T05:17:01;77556.53;;;-144.77;98.62
6449;BME280;3257;52.298;13.690;2022-10-17T05:19:27;77564.50;;;-144.77;98.71
6449;BME280;3257;52.298;13.690;2022-10-17T05:21:54;77564.50;;;-144.77;98.75
6449;BME280;3257;52.298;13.690;2022-10-17T05:24:20;77550.56;;;-144.77;98.77
6449;BME280;3257;52.298;13.690;2022-10-17T05:26:49;77552.56;;;-144.77;98.47
6449;BME280;3257;52.298;13.690;2022-10-17T05:29:17;77552.56;;;-144.77;98.75
6449;BME280;3257;52.298;13.690;2022-10-17T05:31:43;77552.56;;;-144.77;99.16
6449;BME280;3257;52.298;13.690;2022-10-17T05:34:10;77520.75;;;-144.77;99.79
6449;BME280;3257;52.298;13.690;2022-10-17T05:36:39;77538.66;;;-144.77;99.64
6449;BME280;3257;52.298;13.690;2022-10-17T05:39:05;77508.84;;;-144.77;99.23
6449;BME280;3257;52.298;13.690;2022-10-17T05:41:32;77548.59;;;-144.77;99.21
6449;BME280;3257;52.298;13.690;2022-10-17T05:43:58;77544.63;;;-144.77;99.98
6449;BME280;3257;52.298;13.690;2022-10-17T05:46:30;77542.63;;;-144.77;100.00
6449;BME280;3257;52.298;13.690;2022-10-17T05:48:57;77532.69;;;-144.77;99.91
6449;BME280;3257;52.298;13.690;2022-10-17T05:51:24;77526.72;;;-144.77;100.00
6449;BME280;3257;52.298;13.690;2022-10-17T05:53:50;77540.63;;;-144.77;100.00
6449;BME280;3257;52.298;13.690;2022-10-17T05:56:23;77540.63;;;-144.77;100.00
6449;BME280;3257;52.298;13.690;2022-10-17T05:58:49;77550.56;;;-144.77;100.00
6449;BME280;3257;52.298;13.690;2022-10-17T06:01:20;77530.69;;;-144.77;100.00
6449;BME280;3257;52.298;13.690;2022-10-17T06:03:47;77520.75;;;-144.77;100.00
6449;BME280;3257;52.298;13.690;2022-10-17T06:06:14;77524.72;;;-144.77;100.00
6449;BME280;3257;52.298;13.690;2022-10-17T06:08:41;77504.84;;;-144.77;100.00
6449;BME280;3257;52.298;13.690;2022-10-17T06:11:07;77496.91;;;-144.77;100.00
6449;BME280;3257;52.298;13.690;2022-10-17T06:13:36;77512.81;;;-144.77;100.00
6449;BME280;3257;52.298;13.690;2022-10-17T06:16:03;77467.09;;;-144.77;100.00
6449;BME280;3257;52.298;13.690;2022-10-17T06:18:30;77477.03;;;-144.77;100.00
6449;BME280;3257;52.298;13.690;2022-10-17T06:21:04;77461.13;;;-144.77;100.00
6449;BME280;3257;52.298;13.690;2022-10-17T06:23:31;77484.97;;;-144.77;100.00
6449;BME280;3257;52.298;13.690;2022-10-17T06:26:03;77471.06;;;-144.77;100.00
6449;BME280;3257;52.298;13.690;2022-10-17T06:28:30;77475.03;;;-144.77;100.00
6449;BME280;3257;52.298;13.690;2022-10-17T06:31:08;77490.94;;;-144.77;100.00
6449;BME280;3257;52.298;13.690;2022-10-17T06:33:35;77481.00;;;-144.77;100.00
6449;BME280;3257;52.298;13.690;2022-10-17T06:36:03;77483.00;;;-144.77;100.00
6449;BME280;3257;52.298;13.690;2022-10-17T06:38:30;77457.16;;;-144.77;100.00
6449;BME280;3257;52.298;13.690;2022-10-17T06:41:04;77451.19;;;-144.77;100.00
6449;BME280;3257;52.298;13.690;2022-10-17T06:43:35;77455.16;;;-144.77;100.00
6449;BME280;3257;52.298;13.690;2022-10-17T06:46:02;77437.28;;;-144.77;100.00
6449;BME280;3257;52.298;13.690;2022-10-17T06:48:29;77441.25;;;-144.77;100.00
6449;BME280;3257;52.298;13.690;2022-10-17T06:51:00;77425.34;;;-144.77;100.00
6449;BME280;3257;52.298;13.690;2022-10-17T06:53:33;77425.34;;;-144.77;100.00
6449;BME280;3257;52.298;13.690;2022-10-17T06:56:13;77425.34;;;-144.77;100.00
6449;BME280;3257;52.298;13.690;2022-10-17T06:58:40;77417.41;;;-144.77;100.00
6449;BME280;3257;52.298;13.690;2022-10-17T07:01:11;77409.44;;;-144.77;100.00
6449;BME280;3257;52.298;13.690;2022-10-17T07:03:39;77383.59;;;-144.77;100.00
6449;BME280;3257;52.298;13.690;2022-10-17T07:06:06;77397.53;;;-144.77;100.00
6449;BME280;3257;52.298;13.690;2022-10-17T07:08:44;77391.56;;;-144.77;100.00
6449;BME280;3257;52.298;13.690;2022-10-17T07:11:13;77361.75;;;-144.77;100.00
6449;BME280;3257;52.298;13.690;2022-10-17T07:13:43;77343.84;;;-144.77;100.00
6449;BME280;3257;52.298;13.690;2022-10-17T07:16:09;77349.81;;;-144.77;100.00
6449;BME280;3257;52.298;13.690;2022-10-17T07:18:36;77341.88;;;-144.77;100.00
6449;BME280;3257;52.298;13.690;2022-10-17T07:21:22;77331.94;;;-144.77;100.00
6449;BME280;3257;52.298;13.690;2022-10-17T07:24:14;77310.06;;;-144.77;100.00
6449;BME280;3257;52.298;13.690;2022-10-17T07:26:41;77300.13;;;-144.77;99.99
6449;BME280;3257;52.298;13.690;2022-10-17T07:29:08;77294.16;;;-144.77;99.54
6449;BME280;3257;52.298;13.690;2022-10-17T07:31:42;77270.31;;;-144.77;99.17
6449;BME280;3257;52.298;13.690;2022-10-17T07:34:10;77274.28;;;-144.77;99.18
6449;BME280;3257;52.298;13.690;2022-10-17T07:36:46;77270.31;;;-144.77;98.68
6449;BME280;3257;52.298;13.690;2022-10-17T07:39:14;77272.31;;;-144.77;98.38
6449;BME280;3257;52.298;13.690;2022-10-17T07:41:40;77264.34;;;-144.77;98.33
6449;BME280;3257;52.298;13.690;2022-10-17T07:44:09;77266.34;;;-144.77;98.04
6449;BME280;3257;52.298;13.690;2022-10-17T07:46:36;77252.44;;;-144.77;98.46
6449;BME280;3257;52.298;13.690;2022-10-17T07:49:03;77238.50;;;-144.77;97.66
6449;BME280;3257;52.298;13.690;2022-10-17T07:51:30;77228.56;;;-144.77;97.31
6449;BME280;3257;52.298;13.690;2022-10-17T07:53:56;77210.69;;;-144.77;97.10
6449;BME280;3257;52.298;13.690;2022-10-17T07:56:23;77212.69;;;-144.77;96.42
6449;BME280;3257;52.298;13.690;2022-10-17T07:58:50;77204.72;;;-144.77;95.77
6449;BME280;3257;52.298;13.690;2022-10-17T08:01:17;77186.84;;;-144.77;95.81
6449;BME280;3257;52.298;13.690;2022-10-17T08:03:45;77170.94;;;-144.77;94.92
6449;BME280;3257;52.298;13.690;2022-10-17T08:06:12;77164.97;;;-144.77;94.97
6449;BME280;3257;52.298;13.690;2022-10-17T08:08:40;77155.03;;;-144.77;94.57
6449;BME280;3257;52.298;13.690;2022-10-17T08:11:09;77135.16;;;-144.77;93.77
6449;BME280;3257;52.298;13.690;2022-10-17T08:13:37;77125.22;;;-144.77;92.40
6449;BME280;3257;52.298;13.690;2022-10-17T08:16:06;77125.22;;;-144.77;92.36
6449;BME280;3257;52.298;13.690;2022-10-17T08:18:34;77117.28;;;-144.77;92.58
6449;BME280;3257;52.298;13.690;2022-10-17T08:21:03;77083.50;;;-144.77;90.88
6449;BME280;3257;52.298;13.690;2022-10-17T08:23:35;77087.47;;;-144.77;90.36
6449;BME280;3257;52.298;13.690;2022-10-17T08:26:04;77075.53;;;-144.77;90.16
6449;BME280;3257;52.298;13.690;2022-10-17T08:28:33;77057.66;;;-144.77;90.09
6449;BME280;3257;52.298;13.690;2022-10-17T08:31:02;77039.75;;;-144.77;90.09
6449;BME280;3257;52.298;13.690;2022-10-17T08:33:28;77009.94;;;-144.77;87.77
6449;BME280;3257;52.298;13.690;2022-10-17T08:35:57;77011.94;;;-144.77;87.58
6449;BME280;3257;52.298;13.690;2022-10-17T08:38:24;76980.13;;;-144.77;87.27
6449;BME280;3257;52.298;13.690;2022-10-17T08:40:56;76956.28;;;-144.77;85.27
6449;BME280;3257;52.298;13.690;2022-10-17T08:43:32;76956.28;;;-144.77;83.99
6449;BME280;3257;52.298;13.690;2022-10-17T08:46:06;76942.38;;;-144.77;84.14
6449;BME280;3257;52.298;13.690;2022-10-17T08:48:38;76940.41;;;-144.77;84.21
6449;BME280;3257;52.298;13.690;2022-10-17T08:51:18;76928.47;;;-144.77;84.48
6449;BME280;3257;52.298;13.690;2022-10-17T08:56:25;76902.63;;;-144.77;83.52
6449;BME280;3257;52.298;13.690;2022-10-17T08:59:16;76888.72;;;-144.77;82.08
6449;BME280;3257;52.298;13.690;2022-10-17T09:02:05;76872.81;;;-144.77;81.39
6449;BME280;3257;52.298;13.690;2022-10-17T09:04:51;76860.91;;;-144.77;81.06
6449;BME280;3257;52.298;13.690;2022-10-17T09:07:44;76843.00;;;-144.77;80.79
6449;BME280;3257;52.298;13.690;2022-10-17T09:10:45;76827.13;;;-144.77;81.17
6449;BME280;3257;52.298;13.690;2022-10-17T09:19:22;76777.44;;;-144.77;78.46
6449;BME280;3257;52.298;13.690;2022-10-17T09:22:00;76773.47;;;-144.77;78.37
6449;BME280;3257;52.298;13.690;2022-10-17T09:27:05;76757.56;;;-144.77;77.09
6449;BME280;3257;52.298;13.690;2022-10-17T09:29:36;76747.63;;;-144.77;76.51
6449;BME280;3257;52.298;13.690;2022-10-17T09:32:15;76733.72;;;-144.77;75.48
6449;BME280;3257;52.298;13.690;2022-10-17T09:34:43;76717.81;;;-144.77;74.95
6449;BME280;3257;52.298;13.690;2022-10-17T09:37:14;76709.88;;;-144.77;75.08
6449;BME280;3257;52.298;13.690;2022-10-17T09:39:42;76691.97;;;-144.77;75.22
6449;BME280;3257;52.298;13.690;2022-10-17T09:42:14;76688.00;;;-144.77;75.27
6449;BME280;3257;52.298;13.690;2022-10-17T09:49:58;76650.25;;;-144.77;73.65
6449;BME280;3257;52.298;13.690;2022-10-17T09:52:38;76638.31;;;-144.77;73.03
6449;BME280;3257;52.298;13.690;2022-10-17T09:58:04;76620.44;;;-144.77;72.98
6449;BME280;3257;52.298;13.690;2022-10-17T10:00:34;76600.56;;;-144.77;72.55
6449;BME280;3257;52.298;13.690;2022-10-17T10:03:20;76596.59;;;-144.77;72.88
6449;BME280;3257;52.298;13.690;2022-10-17T10:06:05;76584.66;;;-144.77;71.35
6449;BME280;3257;52.298;13.690;2022-10-17T10:08:34;76570.75;;;-144.77;71.40
6449;BME280;3257;52.298;13.690;2022-10-17T10:11:06;76562.81;;;-144.77;70.22
6449;BME280;3257;52.298;13.690;2022-10-17T10:13:39;76540.94;;;-144.77;71.14
6449;BME280;3257;52.298;13.690;2022-10-17T10:16:40;76527.03;;;-144.77;68.04
6449;BME280;3257;52.298;13.690;2022-10-17T10:19:28;76505.19;;;-144.77;68.34
6449;BME280;3257;52.298;13.690;2022-10-17T10:22:02;76495.25;;;-144.77;68.02
6449;BME280;3257;52.298;13.690;2022-10-17T10:24:29;76479.34;;;-144.77;68.07
6449;BME280;3257;52.298;13.690;2022-10-17T10:26:59;76453.50;;;-144.77;67.32
6449;BME280;3257;52.298;13.690;2022-10-17T10:29:30;76439.59;;;-144.77;66.76
6449;BME280;3257;52.298;13.690;2022-10-17T10:32:06;76423.72;;;-144.77;65.31
6449;BME280;3257;52.298;13.690;2022-10-17T10:34:34;76419.72;;;-144.77;64.54
6449;BME280;3257;52.298;13.690;2022-10-17T10:39:49;76395.91;;;-144.77;64.43
6449;BME280;3257;52.298;13.690;2022-10-17T10:42:27;76381.97;;;-144.77;65.12
6449;BME280;3257;52.298;13.690;2022-10-17T10:44:59;76383.97;;;-144.77;63.70
6449;BME280;3257;52.298;13.690;2022-10-17T10:47:28;76401.84;;;-144.77;64.48
6449;BME280;3257;52.298;13.690;2022-10-17T10:50:15;76415.75;;;-144.77;64.94
6449;BME280;3257;52.298;13.690;2022-10-17T10:52:57;76421.72;;;-144.77;65.12
6449;BME280;3257;52.298;13.690;2022-10-17T10:55:35;76433.66;;;-144.77;66.11
6449;BME280;3257;52.298;13.690;2022-10-17T10:58:31;76429.66;;;-144.77;65.24
6449;BME280;3257;52.298;13.690;2022-10-17T11:01:10;76419.72;;;-144.77;66.55
6449;BME280;3257;52.298;13.690;2022-10-17T11:06:44;76389.94;;;-144.77;65.91
6449;BME280;3257;52.298;13.690;2022-10-17T11:09:31;76378.00;;;-144.77;64.51
6449;BME280;3257;52.298;13.690;2022-10-17T11:12:11;76360.13;;;-144.77;63.78
6449;BME280;3257;52.298;13.690;2022-10-17T11:14:48;76362.09;;;-144.77;64.39
6449;BME280;3257;52.298;13.690;2022-10-17T11:17:31;76364.09;;;-144.77;63.91
6449;BME280;3257;52.298;13.690;2022-10-17T11:20:17;76354.16;;;-144.77;64.81
6449;BME280;3257;52.298;13.690;2022-10-17T11:22:53;76348.19;;;-144.77;64.77
6449;BME280;3257;52.298;13.690;2022-10-17T11:25:32;76338.25;;;-144.77;63.62
6449;BME280;3257;52.298;13.690;2022-10-17T11:27:59;76338.25;;;-144.77;63.20
6449;BME280;3257;52.298;13.690;2022-10-17T11:30:56;76336.28;;;-144.77;63.39
6449;BME280;3257;52.298;13.690;2022-10-17T11:33:48;76324.34;;;-144.77;63.57
6449;BME280;3257;52.298;13.690;2022-10-17T11:36:17;76306.47;;;-144.77;63.67
6449;BME280;3257;52.298;13.690;2022-10-17T11:41:33;76288.59;;;-144.77;62.84
6449;BME280;3257;52.298;13.690;2022-10-17T11:44:39;76286.59;;;-144.77;62.01
6449;BME280;3257;52.298;13.690;2022-10-17T11:49:39;76270.72;;;-144.77;62.69
6449;BME280;3257;52.298;13.690;2022-10-17T11:52:29;76264.75;;;-144.77;62.18
6449;BME280;3257;52.298;13.690;2022-10-17T11:55:23;76278.66;;;-144.77;62.27
6449;BME280;3257;52.298;13.690;2022-10-17T12:03:51;76278.66;;;-144.77;62.45
6449;BME280;3257;52.298;13.690;2022-10-17T12:12:26;76264.75;;;-144.77;61.53
6449;BME280;3257;52.298;13.690;2022-10-17T12:14:54;76254.81;;;-144.77;61.96
6449;BME280;3257;52.298;13.690;2022-10-17T12:17:45;76248.84;;;-144.77;60.04
6449;BME280;3257;52.298;13.690;2022-10-17T12:22:47;76242.88;;;-144.77;61.33
6449;BME280;3257;52.298;13.690;2022-10-17T12:25:20;76240.91;;;-144.77;60.87
6449;BME280;3257;52.298;13.690;2022-10-17T12:27:48;76256.78;;;-144.77;60.59
6449;BME280;3257;52.298;13.690;2022-10-17T12:30:20;76266.72;;;-144.77;61.71
6449;BME280;3257;52.298;13.690;2022-10-17T12:49:40;76276.66;;;-144.77;60.39
6449;BME280;3257;52.298;13.690;2022-10-17T12:54:38;76246.88;;;-144.77;61.35
6449;BME280;3257;52.298;13.690;2022-10-17T12:57:21;76246.88;;;-144.77;62.32
6449;BME280;3257;52.298;13.690;2022-10-17T12:59:51;76244.88;;;-144.77;62.82
6449;BME280;3257;52.298;13.690;2022-10-17T13:02:26;76254.81;;;-144.77;61.42
6449;BME280;3257;52.298;13.690;2022-10-17T13:05:22;76264.75;;;-144.77;61.01
6449;BME280;3257;52.298;13.690;2022-10-17T13:07:51;76258.78;;;-144.77;61.46
6449;BME280;3257;52.298;13.690;2022-10-17T13:10:21;76252.81;;;-144.77;61.31
6449;BME280;3257;52.298;13.690;2022-10-17T13:12:50;76256.78;;;-144.77;61.97
6449;BME280;3257;52.298;13.690;2022-10-17T13:15:19;76268.72;;;-144.77;62.36
6449;BME280;3257;52.298;13.690;2022-10-17T13:17:55;76270.72;;;-144.77;60.50
6449;BME280;3257;52.298;13.690;2022-10-17T13:20:24;76256.78;;;-144.77;61.33
6449;BME280;3257;52.298;13.690;2022-10-17T13:22:56;76258.78;;;-144.77;61.65
6449;BME280;3257;52.298;13.690;2022-10-17T13:25:24;76262.75;;;-144.77;61.35
6449;BME280;3257;52.298;13.690;2022-10-17T13:28:03;76258.78;;;-144.77;61.70
6449;BME280;3257;52.298;13.690;2022-10-17T13:30:33;76248.84;;;-144.77;62.27
6449;BME280;3257;52.298;13.690;2022-10-17T13:33:00;76258.78;;;-144.77;62.20
6449;BME280;3257;52.298;13.690;2022-10-17T13:35:32;76258.78;;;-144.77;61.62
6449;BME280;3257;52.298;13.690;2022-10-17T13:38:27;76248.84;;;-144.77;61.64
6449;BME280;3257;52.298;13.690;2022-10-17T13:40:55;76254.81;;;-144.77;60.31
6449;BME280;3257;52.298;13.690;2022-10-17T13:43:42;76254.81;;;-144.77;61.52
6449;BME280;3257;52.298;13.690;2022-10-17T13:46:19;76256.78;;;-144.77;61.74
6449;BME280;3257;52.298;13.690;2022-10-17T13:49:54;76250.84;;;-144.77;61.52
6449;BME280;3257;52.298;13.690;2022-10-17T13:51:56;76250.84;;;-144.77;61.69
6449;BME280;3257;52.298;13.690;2022-10-17T13:57:03;76236.94;;;-144.77;62.32
6449;BME280;3257;52.298;13.690;2022-10-17T13:59:38;76228.97;;;-144.77;61.63
6449;BME280;3257;52.298;13.690;2022-10-17T14:02:21;76234.94;;;-144.77;61.12
6449;BME280;3257;52.298;13.690;2022-10-17T14:10:36;76225.00;;;-144.77;61.82
6449;BME280;3257;52.298;13.690;2022-10-17T14:13:05;76238.91;;;-144.77;61.99
6449;BME280;3257;52.298;13.690;2022-10-17T14:15:34;76246.88;;;-144.77;61.82
6449;BME280;3257;52.298;13.690;2022-10-17T14:18:04;76252.81;;;-144.77;61.98
6449;BME280;3257;52.298;13.690;2022-10-17T14:20:34;76260.78;;;-144.77;62.17
6449;BME280;3257;52.298;13.690;2022-10-17T14:23:41;76266.72;;;-144.77;62.32
6449;BME280;3257;52.298;13.690;2022-10-17T14:28:34;76276.66;;;-144.77;62.49
6449;BME280;3257;52.298;13.690;2022-10-17T14:31:10;76284.63;;;-144.77;62.64
6449;BME280;3257;52.298;13.690;2022-10-17T14:33:43;76286.59;;;-144.77;62.80
6449;BME280;3257;52.298;13.690;2022-10-17T14:36:17;76288.59;;;-144.77;62.86
6449;BME280;3257;52.298;13.690;2022-10-17T14:38:50;76292.56;;;-144.77;62.96
6449;BME280;3257;52.298;13.690;2022-10-17T14:41:29;76288.59;;;-144.77;62.89
6449;BME280;3257;52.298;13.690;2022-10-17T14:46:52;76296.53;;;-144.77;63.12
6449;BME280;3257;52.298;13.690;2022-10-17T14:49:25;76312.44;;;-144.77;63.36
6449;BME280;3257;52.298;13.690;2022-10-17T14:54:55;76340.25;;;-144.77;63.59
6449;BME280;3257;52.298;13.690;2022-10-17T14:59:52;76362.09;;;-144.77;64.07
6449;BME280;3257;52.298;13.690;2022-10-17T15:02:23;76374.03;;;-144.77;64.59
6449;BME280;3257;52.298;13.690;2022-10-17T15:04:50;76383.97;;;-144.77;65.24
6449;BME280;3257;52.298;13.690;2022-10-17T15:07:17;76399.88;;;-144.77;65.60